sensor_id;sensor_type;location;lat;lon;timestamp;pressure;altitude;pressure_sealevel;temperature;humidity
32081;BME280;18593;51.426;7.030;2023-11-19T00:01:45;99882.13;;;10.20;100.00
32081;BME280;18593;51.426;7.030;2023-11-19T00:04:13;99872.06;;;10.22;100.00
32081;BME280;18593;51.426;7.030;2023-11-19T00:06:42;99880.22;;;10.27;100.00
32081;BME280;18593;51.426;7.030;2023-11-19T00:09:10;99880.59;;;10.31;100.00
32081;BME280;18593;51.426;7.030;2023-11-19T00:11:38;99877.47;;;10.34;100.00
32081;BME280;18593;51.426;7.030;2023-11-19T00:14:05;99869.84;;;10.38;100.00
32081;BME280;18593;51.426;7.030;2023-11-19T00:16:34;99896.50;;;10.38;100.00
32081;BME280;18593;51.426;7.030;2023-11-19T00:19:01;99896.88;;;10.41;100.00
32081;BME280;18593;51.426;7.030;2023-11-19T00:21:30;99898.88;;;10.46;100.00
32081;BME280;18593;51.426;7.030;2023-11-19T00:24:00;99894.72;;;10.50;100.00
32081;BME280;18593;51.426;7.030;2023-11-19T00:26:28;99896.09;;;10.52;100.00
32081;BME280;18593;51.426;7.030;2023-11-19T00:28:57;99890.34;;;10.55;100.00
32081;BME280;18593;51.426;7.030;2023-11-19T00:31:25;99893.38;;;10.59;100.00
32081;BME280;18593;51.426;7.030;2023-11-19T00:33:54;99903.34;;;10.64;100.00
32081;BME280;18593;51.426;7.030;2023-11-19T00:36:21;99902.09;;;10.66;100.00
32081;BME280;18593;51.426;7.030;2023-11-19T00:38:51;99893.84;;;10.68;100.00
32081;BME280;18593;51.426;7.030;2023-11-19T00:41:21;99894.44;;;10.70;100.00
32081;BME280;18593;51.426;7.030;2023-11-19T00:43:48;99878.78;;;10.73;100.00
32081;BME280;18593;51.426;7.030;2023-11-19T00:46:16;99883.91;;;10.75;100.00
32081;BME280;18593;51.426;7.030;2023-11-19T00:48:43;99872.44;;;10.74;100.00
32081;BME280;18593;51.426;7.030;2023-11-19T00:51:13;99873.25;;;10.75;100.00
32081;BME280;18593;51.426;7.030;2023-11-19T00:53:41;99869.31;;;10.77;100.00
32081;BME280;18593;51.426;7.030;2023-11-19T00:56:10;99857.81;;;10.77;100.00
32081;BME280;18593;51.426;7.030;2023-11-19T00:58:41;99851.22;;;10.79;100.00
32081;BME280;18593;51.426;7.030;2023-11-19T01:01:08;99852.84;;;10.80;100.00
32081;BME280;18593;51.426;7.030;2023-11-19T01:03:36;99855.28;;;10.82;100.00
32081;BME280;18593;51.426;7.030;2023-11-19T01:06:05;99849.25;;;10.87;100.00
32081;BME280;18593;51.426;7.030;2023-11-19T01:08:34;99863.78;;;10.91;100.00
32081;BME280;18593;51.426;7.030;2023-11-19T01:11:03;99842.44;;;10.91;100.00
32081;BME280;18593;51.426;7.030;2023-11-19T01:13:31;99840.94;;;10.95;100.00
32081;BME280;18593;51.426;7.030;2023-11-19T01:16:00;99841.06;;;11.00;100.00
32081;BME280;18593;51.426;7.030;2023-11-19T01:18:28;99846.75;;;11.03;100.00
32081;BME280;18593;51.426;7.030;2023-11-19T01:20:57;99850.00;;;11.05;100.00
32081;BME280;18593;51.426;7.030;2023-11-19T01:23:24;99851.41;;;11.08;100.00
32081;BME280;18593;51.426;7.030;2023-11-19T01:25:52;99855.00;;;11.14;100.00
32081;BME280;18593;51.426;7.030;2023-11-19T01:28:20;99852.34;;;11.14;100.00
32081;BME280;18593;51.426;7.030;2023-11-19T01:30:50;99855.81;;;11.14;100.00
32081;BME280;18593;51.426;7.030;2023-11-19T01:33:19;99858.25;;;11.16;100.00
32081;BME280;18593;51.426;7.030;2023-11-19T01:35:47;99860.13;;;11.15;100.00
32081;BME280;18593;51.426;7.030;2023-11-19T01:38:15;99857.81;;;11.19;100.00
32081;BME280;18593;51.426;7.030;2023-11-19T01:40:42;99863.72;;;11.21;100.00
32081;BME280;18593;51.426;7.030;2023-11-19T01:43:09;99864.88;;;11.25;100.00
32081;BME280;18593;51.426;7.030;2023-11-19T01:45:40;99852.09;;;11.27;100.00
32081;BME280;18593;51.426;7.030;2023-11-19T01:48:07;99860.72;;;11.29;100.00
32081;BME280;18593;51.426;7.030;2023-11-19T01:50:39;99849.00;;;11.30;100.00
32081;BME280;18593;51.426;7.030;2023-11-19T01:53:07;99845.06;;;11.32;100.00
32081;BME280;18593;51.426;7.030;2023-11-19T01:55:35;99852.84;;;11.34;100.00
32081;BME280;18593;51.426;7.030;2023-11-19T01:58:04;99846.69;;;11.33;100.00
32081;BME280;18593;51.426;7.030;2023-11-19T02:00:32;99850.50;;;11.38;100.00
32081;BME280;18593;51.426;7.030;2023-11-19T02:03:00;99857.47;;;11.39;100.00
32081;BME280;18593;51.426;7.030;2023-11-19T02:05:29;99838.31;;;11.42;100.00
32081;BME280;18593;51.426;7.030;2023-11-19T02:08:00;99841.34;;;11.45;100.00
32081;BME280;18593;51.426;7.030;2023-11-19T02:10:28;99847.28;;;11.47;100.00
32081;BME280;18593;51.426;7.030;2023-11-19T02:12:58;99836.09;;;11.50;100.00
32081;BME280;18593;51.426;7.030;2023-11-19T02:15:26;99818.47;;;11.49;100.00
32081;BME280;18593;51.426;7.030;2023-11-19T02:17:54;99806.72;;;11.50;100.00
32081;BME280;18593;51.426;7.030;2023-11-19T02:20:21;99794.19;;;11.51;100.00
32081;BME280;18593;51.426;7.030;2023-11-19T02:22:50;99790.72;;;11.50;100.00
32081;BME280;18593;51.426;7.030;2023-11-19T02:25:30;99797.91;;;11.50;100.00
32081;BME280;18593;51.426;7.030;2023-11-19T02:28:02;99795.00;;;11.51;100.00
32081;BME280;18593;51.426;7.030;2023-11-19T02:30:31;99797.66;;;11.51;100.00
32081;BME280;18593;51.426;7.030;2023-11-19T02:32:59;99798.50;;;11.52;100.00
32081;BME280;18593;51.426;7.030;2023-11-19T02:35:32;99792.13;;;11.53;100.00
32081;BME280;18593;51.426;7.030;2023-11-19T02:38:00;99792.69;;;11.55;100.00
32081;BME280;18593;51.426;7.030;2023-11-19T02:40:30;99796.97;;;11.56;100.00
32081;BME280;18593;51.426;7.030;2023-11-19T02:42:58;99794.28;;;11.56;100.00
32081;BME280;18593;51.426;7.030;2023-11-19T02:45:27;99787.44;;;11.60;100.00
32081;BME280;18593;51.426;7.030;2023-11-19T02:47:57;99788.25;;;11.60;100.00
32081;BME280;18593;51.426;7.030;2023-11-19T02:50:28;99796.06;;;11.62;100.00
32081;BME280;18593;51.426;7.030;2023-11-19T02:52:57;99796.06;;;11.62;100.00
32081;BME280;18593;51.426;7.030;2023-11-19T02:55:25;99792.31;;;11.63;100.00
32081;BME280;18593;51.426;7.030;2023-11-19T02:57:56;99799.28;;;11.64;100.00
32081;BME280;18593;51.426;7.030;2023-11-19T03:00:27;99786.28;;;11.68;100.00
32081;BME280;18593;51.426;7.030;2023-11-19T03:03:01;99784.06;;;11.65;100.00
32081;BME280;18593;51.426;7.030;2023-11-19T03:05:43;99789.16;;;11.66;100.00
32081;BME280;18593;51.426;7.030;2023-11-19T03:08:12;99787.34;;;11.67;100.00
32081;BME280;18593;51.426;7.030;2023-11-19T03:10:40;99783.63;;;11.68;100.00
32081;BME280;18593;51.426;7.030;2023-11-19T03:13:12;99782.31;;;11.70;100.00
32081;BME280;18593;51.426;7.030;2023-11-19T03:15:43;99780.25;;;11.72;100.00
32081;BME280;18593;51.426;7.030;2023-11-19T03:18:12;99776.50;;;11.73;100.00
32081;BME280;18593;51.426;7.030;2023-11-19T03:20:40;99765.84;;;11.73;100.00
32081;BME280;18593;51.426;7.030;2023-11-19T03:23:07;99760.25;;;11.75;100.00
32081;BME280;18593;51.426;7.030;2023-11-19T03:25:35;99762.91;;;11.75;100.00
32081;BME280;18593;51.426;7.030;2023-11-19T03:28:04;99765.38;;;11.76;100.00
32081;BME280;18593;51.426;7.030;2023-11-19T03:30:32;99768.03;;;11.76;100.00
32081;BME280;18593;51.426;7.030;2023-11-19T03:33:01;99776.88;;;11.77;100.00
32081;BME280;18593;51.426;7.030;2023-11-19T03:35:29;99783.00;;;11.77;100.00
32081;BME280;18593;51.426;7.030;2023-11-19T03:37:57;99776.88;;;11.77;100.00
32081;BME280;18593;51.426;7.030;2023-11-19T03:40:24;99768.50;;;11.73;100.00
32081;BME280;18593;51.426;7.030;2023-11-19T03:42:54;99779.44;;;11.72;100.00
32081;BME280;18593;51.426;7.030;2023-11-19T03:45:22;99783.97;;;11.71;100.00
32081;BME280;18593;51.426;7.030;2023-11-19T03:47:51;99783.97;;;11.71;100.00
32081;BME280;18593;51.426;7.030;2023-11-19T03:50:20;99786.03;;;11.69;100.00
32081;BME280;18593;51.426;7.030;2023-11-19T03:52:47;99786.28;;;11.68;100.00
32081;BME280;18593;51.426;7.030;2023-11-19T03:55:15;99781.41;;;11.65;100.00
32081;BME280;18593;51.426;7.030;2023-11-19T03:57:43;99790.72;;;11.62;100.00
32081;BME280;18593;51.426;7.030;2023-11-19T04:00:11;99798.94;;;11.60;100.00
32081;BME280;18593;51.426;7.030;2023-11-19T04:02:40;99790.59;;;11.57;100.00
32081;BME280;18593;51.426;7.030;2023-11-19T04:05:08;99789.75;;;11.56;100.00
32081;BME280;18593;51.426;7.030;2023-11-19T04:07:38;99787.09;;;11.56;100.00
32081;BME280;18593;51.426;7.030;2023-11-19T04:10:09;99795.59;;;11.53;100.00
32081;BME280;18593;51.426;7.030;2023-11-19T04:12:36;99789.66;;;11.51;100.00
32081;BME280;18593;51.426;7.030;2023-11-19T04:15:06;99794.19;;;11.51;100.00
32081;BME280;18593;51.426;7.030;2023-11-19T04:17:34;99789.09;;;11.49;100.00
32081;BME280;18593;51.426;7.030;2023-11-19T04:20:01;99781.78;;;11.45;100.00
32081;BME280;18593;51.426;7.030;2023-11-19T04:22:30;99774.56;;;11.45;100.00
32081;BME280;18593;51.426;7.030;2023-11-19T04:24:59;99770.03;;;11.46;100.00
32081;BME280;18593;51.426;7.030;2023-11-19T04:27:26;99784.44;;;11.45;100.00
32081;BME280;18593;51.426;7.030;2023-11-19T04:29:54;99785.50;;;11.44;100.00
32081;BME280;18593;51.426;7.030;2023-11-19T04:32:22;99787.56;;;11.42;100.00
32081;BME280;18593;51.426;7.030;2023-11-19T04:34:51;99792.91;;;11.42;100.00
32081;BME280;18593;51.426;7.030;2023-11-19T04:37:19;99783.28;;;11.41;100.00
32081;BME280;18593;51.426;7.030;2023-11-19T04:39:46;99796.88;;;11.39;100.00
32081;BME280;18593;51.426;7.030;2023-11-19T04:42:15;99801.75;;;11.42;100.00
32081;BME280;18593;51.426;7.030;2023-11-19T04:44:43;99807.91;;;11.43;100.00
32081;BME280;18593;51.426;7.030;2023-11-19T04:47:11;99801.53;;;11.44;100.00
32081;BME280;18593;51.426;7.030;2023-11-19T04:49:40;99794.31;;;11.44;100.00
32081;BME280;18593;51.426;7.030;2023-11-19T04:52:09;99794.06;;;11.46;100.00
32081;BME280;18593;51.426;7.030;2023-11-19T04:54:41;99799.22;;;11.47;100.00
32081;BME280;18593;51.426;7.030;2023-11-19T04:57:09;99801.28;;;11.45;100.00
32081;BME280;18593;51.426;7.030;2023-11-19T04:59:39;99795.38;;;11.43;100.00
32081;BME280;18593;51.426;7.030;2023-11-19T05:02:07;99810.78;;;11.41;100.00
32081;BME280;18593;51.426;7.030;2023-11-19T05:04:35;99814.06;;;11.43;100.00
32081;BME280;18593;51.426;7.030;2023-11-19T05:07:03;99811.41;;;11.43;100.00
32081;BME280;18593;51.426;7.030;2023-11-19T05:09:31;99811.16;;;11.45;100.00
32081;BME280;18593;51.426;7.030;2023-11-19T05:11:59;99810.91;;;11.46;100.00
32081;BME280;18593;51.426;7.030;2023-11-19T05:14:27;99804.53;;;11.47;100.00
32081;BME280;18593;51.426;7.030;2023-11-19T05:16:56;99820.56;;;11.47;100.00
32081;BME280;18593;51.426;7.030;2023-11-19T05:19:24;99818.47;;;11.49;100.00
32081;BME280;18593;51.426;7.030;2023-11-19T05:21:51;99818.22;;;11.51;100.00
32081;BME280;18593;51.426;7.030;2023-11-19T05:24:19;99806.97;;;11.49;100.00
32081;BME280;18593;51.426;7.030;2023-11-19T05:26:47;99812.31;;;11.49;100.00
32081;BME280;18593;51.426;7.030;2023-11-19T05:29:16;99805.91;;;11.50;100.00
32081;BME280;18593;51.426;7.030;2023-11-19T05:31:44;99812.88;;;11.51;100.00
32081;BME280;18593;51.426;7.030;2023-11-19T05:34:13;99816.38;;;11.51;100.00
32081;BME280;18593;51.426;7.030;2023-11-19T05:36:41;99802.19;;;11.51;100.00
32081;BME280;18593;51.426;7.030;2023-11-19T05:39:09;99818.00;;;11.52;100.00
32081;BME280;18593;51.426;7.030;2023-11-19T05:41:37;99808.13;;;11.53;100.00
32081;BME280;18593;51.426;7.030;2023-11-19T05:44:05;99812.19;;;11.55;100.00
32081;BME280;18593;51.426;7.030;2023-11-19T05:46:32;99805.22;;;11.54;100.00
32081;BME280;18593;51.426;7.030;2023-11-19T05:49:06;99813.81;;;11.56;100.00
32081;BME280;18593;51.426;7.030;2023-11-19T05:51:38;99819.16;;;11.56;100.00
32081;BME280;18593;51.426;7.030;2023-11-19T05:54:06;99818.56;;;11.54;100.00
32081;BME280;18593;51.426;7.030;2023-11-19T05:56:34;99818.22;;;11.51;100.00
32081;BME280;18593;51.426;7.030;2023-11-19T05:59:01;99828.91;;;11.51;100.00
32081;BME280;18593;51.426;7.030;2023-11-19T06:01:34;99817.19;;;11.52;100.00
32081;BME280;18593;51.426;7.030;2023-11-19T06:04:01;99823.00;;;11.49;100.00
32081;BME280;18593;51.426;7.030;2023-11-19T06:06:33;99830.19;;;11.48;100.00
32081;BME280;18593;51.426;7.030;2023-11-19T06:09:02;99829.16;;;11.49;100.00
32081;BME280;18593;51.426;7.030;2023-11-19T06:11:33;99825.66;;;11.49;100.00
32081;BME280;18593;51.426;7.030;2023-11-19T06:14:02;99833.69;;;11.49;100.00
32081;BME280;18593;51.426;7.030;2023-11-19T06:16:31;99822.44;;;11.47;100.00
32081;BME280;18593;51.426;7.030;2023-11-19T06:18:59;99817.09;;;11.47;100.00
32081;BME280;18593;51.426;7.030;2023-11-19T06:21:27;99812.19;;;11.44;100.00
32081;BME280;18593;51.426;7.030;2023-11-19T06:23:54;99827.41;;;11.43;100.00
32081;BME280;18593;51.426;7.030;2023-11-19T06:26:23;99820.44;;;11.42;100.00
32081;BME280;18593;51.426;7.030;2023-11-19T06:28:50;99829.28;;;11.43;100.00
32081;BME280;18593;51.426;7.030;2023-11-19T06:31:18;99828.47;;;11.42;100.00
32081;BME280;18593;51.426;7.030;2023-11-19T06:33:46;99819.97;;;11.45;100.00
32081;BME280;18593;51.426;7.030;2023-11-19T06:36:15;99826.25;;;11.39;100.00
32081;BME280;18593;51.426;7.030;2023-11-19T06:38:43;99828.09;;;11.39;100.00
32081;BME280;18593;51.426;7.030;2023-11-19T06:41:11;99828.91;;;11.39;99.20
32081;BME280;18593;51.426;7.030;2023-11-19T06:43:39;99828.91;;;11.39;98.75
32081;BME280;18593;51.426;7.030;2023-11-19T06:46:15;99831.84;;;11.38;98.20
32081;BME280;18593;51.426;7.030;2023-11-19T06:48:44;99842.41;;;11.32;97.00
32081;BME280;18593;51.426;7.030;2023-11-19T06:51:12;99850.84;;;11.29;96.05
32081;BME280;18593;51.426;7.030;2023-11-19T06:53:40;99855.13;;;11.30;96.70
32081;BME280;18593;51.426;7.030;2023-11-19T06:56:19;99845.75;;;11.28;96.25
32081;BME280;18593;51.426;7.030;2023-11-19T06:58:48;99849.13;;;11.23;95.40
32081;BME280;18593;51.426;7.030;2023-11-19T07:01:16;99867.31;;;11.26;95.33
32081;BME280;18593;51.426;7.030;2023-11-19T07:03:44;99868.97;;;11.27;95.37
32081;BME280;18593;51.426;7.030;2023-11-19T07:06:13;99867.09;;;11.28;95.50
32081;BME280;18593;51.426;7.030;2023-11-19T07:08:41;99865.25;;;11.28;95.43
32081;BME280;18593;51.426;7.030;2023-11-19T07:11:11;99863.63;;;11.27;95.16
32081;BME280;18593;51.426;7.030;2023-11-19T07:13:40;99861.16;;;11.26;94.64
32081;BME280;18593;51.426;7.030;2023-11-19T07:16:09;99866.75;;;11.24;94.63
32081;BME280;18593;51.426;7.030;2023-11-19T07:18:37;99865.13;;;11.23;93.94
32081;BME280;18593;51.426;7.030;2023-11-19T07:21:06;99862.47;;;11.23;94.27
32081;BME280;18593;51.426;7.030;2023-11-19T07:23:36;99869.75;;;11.16;93.91
32081;BME280;18593;51.426;7.030;2023-11-19T07:26:06;99874.03;;;11.17;94.42
32081;BME280;18593;51.426;7.030;2023-11-19T07:28:35;99868.94;;;11.16;94.55
32081;BME280;18593;51.426;7.030;2023-11-19T07:31:03;99863.16;;;11.19;94.71
32081;BME280;18593;51.426;7.030;2023-11-19T07:33:32;99872.78;;;11.20;94.67
32081;BME280;18593;51.426;7.030;2023-11-19T07:36:00;99875.69;;;11.18;94.04
32081;BME280;18593;51.426;7.030;2023-11-19T07:38:27;99882.03;;;11.17;94.24
32081;BME280;18593;51.426;7.030;2023-11-19T07:40:55;99884.38;;;11.14;93.59
32081;BME280;18593;51.426;7.030;2023-11-19T07:43:22;99894.25;;;11.13;93.06
32081;BME280;18593;51.426;7.030;2023-11-19T07:45:50;99904.09;;;11.13;92.37
32081;BME280;18593;51.426;7.030;2023-11-19T07:48:19;99902.69;;;11.10;92.09
32081;BME280;18593;51.426;7.030;2023-11-19T07:50:51;99901.88;;;11.09;91.90
32081;BME280;18593;51.426;7.030;2023-11-19T07:53:22;99909.06;;;11.09;91.62
32081;BME280;18593;51.426;7.030;2023-11-19T07:55:49;99902.25;;;11.13;91.66
32081;BME280;18593;51.426;7.030;2023-11-19T07:58:17;99904.44;;;11.16;91.95
32081;BME280;18593;51.426;7.030;2023-11-19T08:00:45;99911.41;;;11.17;91.85
32081;BME280;18593;51.426;7.030;2023-11-19T08:03:12;99910.13;;;11.20;92.30
32081;BME280;18593;51.426;7.030;2023-11-19T08:05:40;99915.34;;;11.15;91.48
32081;BME280;18593;51.426;7.030;2023-11-19T08:08:09;99919.19;;;11.19;91.88
32081;BME280;18593;51.426;7.030;2023-11-19T08:10:37;99925.34;;;11.19;91.18
32081;BME280;18593;51.426;7.030;2023-11-19T08:13:07;99925.22;;;11.14;90.69
32081;BME280;18593;51.426;7.030;2023-11-19T08:15:35;99922.91;;;11.18;91.16
32081;BME280;18593;51.426;7.030;2023-11-19T08:18:03;99934.16;;;11.20;91.27
32081;BME280;18593;51.426;7.030;2023-11-19T08:20:31;99929.19;;;11.23;91.58
32081;BME280;18593;51.426;7.030;2023-11-19T08:22:58;99944.72;;;11.26;91.63
32081;BME280;18593;51.426;7.030;2023-11-19T08:25:27;99945.53;;;11.27;91.67
32081;BME280;18593;51.426;7.030;2023-11-19T08:28:05;99945.78;;;11.25;91.13
32081;BME280;18593;51.426;7.030;2023-11-19T08:30:44;99939.38;;;11.26;90.69
32081;BME280;18593;51.426;7.030;2023-11-19T08:33:11;99938.56;;;11.26;90.58
32081;BME280;18593;51.426;7.030;2023-11-19T08:35:39;99929.75;;;11.25;90.55
32081;BME280;18593;51.426;7.030;2023-11-19T08:38:06;99922.34;;;11.27;90.71
32081;BME280;18593;51.426;7.030;2023-11-19T08:40:35;99931.38;;;11.26;90.48
32081;BME280;18593;51.426;7.030;2023-11-19T08:43:03;99931.84;;;11.23;90.33
32081;BME280;18593;51.426;7.030;2023-11-19T08:45:31;99925.84;;;11.28;90.62
32081;BME280;18593;51.426;7.030;2023-11-19T08:47:59;99935.22;;;11.30;90.90
32081;BME280;18593;51.426;7.030;2023-11-19T08:50:26;99913.19;;;11.35;90.73
32081;BME280;18593;51.426;7.030;2023-11-19T08:52:53;99917.03;;;11.39;90.47
32081;BME280;18593;51.426;7.030;2023-11-19T08:55:23;99914.72;;;11.43;90.52
32081;BME280;18593;51.426;7.030;2023-11-19T08:57:54;99928.16;;;11.36;90.18
32081;BME280;18593;51.426;7.030;2023-11-19T09:00:22;99923.97;;;11.40;90.23
32081;BME280;18593;51.426;7.030;2023-11-19T09:02:50;99935.59;;;11.46;90.13
32081;BME280;18593;51.426;7.030;2023-11-19T09:05:17;99944.22;;;11.48;89.75
32081;BME280;18593;51.426;7.030;2023-11-19T09:07:45;99935.16;;;11.49;89.21
32081;BME280;18593;51.426;7.030;2023-11-19T09:10:12;99935.16;;;11.49;88.53
32081;BME280;18593;51.426;7.030;2023-11-19T09:12:40;99937.38;;;11.52;88.82
32081;BME280;18593;51.426;7.030;2023-11-19T09:15:11;99942.72;;;11.52;89.07
32081;BME280;18593;51.426;7.030;2023-11-19T09:17:39;99938.50;;;11.56;88.46
32081;BME280;18593;51.426;7.030;2023-11-19T09:20:08;99944.22;;;11.59;88.24
32081;BME280;18593;51.426;7.030;2023-11-19T09:22:41;99942.16;;;11.62;88.36
32081;BME280;18593;51.426;7.030;2023-11-19T09:25:09;99940.84;;;11.64;88.67
32081;BME280;18593;51.426;7.030;2023-11-19T09:27:37;99937.72;;;11.67;88.81
32081;BME280;18593;51.426;7.030;2023-11-19T09:30:07;99935.63;;;11.69;88.58
32081;BME280;18593;51.426;7.030;2023-11-19T09:32:37;99935.19;;;11.72;87.69
32081;BME280;18593;51.426;7.030;2023-11-19T09:35:08;99928.22;;;11.71;87.43
32081;BME280;18593;51.426;7.030;2023-11-19T09:37:39;99942.59;;;11.70;87.34
32081;BME280;18593;51.426;7.030;2023-11-19T09:40:08;99942.59;;;11.70;87.47
32081;BME280;18593;51.426;7.030;2023-11-19T09:42:44;99936.44;;;11.70;87.84
32081;BME280;18593;51.426;7.030;2023-11-19T09:45:14;99938.31;;;11.69;86.84
32081;BME280;18593;51.426;7.030;2023-11-19T09:48:00;99936.00;;;11.73;86.72
32081;BME280;18593;51.426;7.030;2023-11-19T09:50:30;99932.25;;;11.74;86.81
32081;BME280;18593;51.426;7.030;2023-11-19T09:53:00;99935.44;;;11.82;86.53
32081;BME280;18593;51.426;7.030;2023-11-19T09:55:30;99935.31;;;11.89;85.89
32081;BME280;18593;51.426;7.030;2023-11-19T09:58:08;99932.41;;;11.91;85.66
32081;BME280;18593;51.426;7.030;2023-11-19T10:00:36;99934.03;;;11.92;86.02
32081;BME280;18593;51.426;7.030;2023-11-19T10:03:24;99938.91;;;11.95;86.14
32081;BME280;18593;51.426;7.030;2023-11-19T10:05:54;99939.97;;;11.94;84.84
32081;BME280;18593;51.426;7.030;2023-11-19T10:08:25;99941.81;;;11.93;85.17
32081;BME280;18593;51.426;7.030;2023-11-19T10:10:55;99935.66;;;11.93;85.14
32081;BME280;18593;51.426;7.030;2023-11-19T10:13:27;99935.91;;;11.91;84.12
32081;BME280;18593;51.426;7.030;2023-11-19T10:15:56;99923.13;;;11.93;84.99
32081;BME280;18593;51.426;7.030;2023-11-19T10:18:27;99932.41;;;11.91;84.29
32081;BME280;18593;51.426;7.030;2023-11-19T10:20:55;99930.78;;;11.90;83.50
32081;BME280;18593;51.426;7.030;2023-11-19T10:23:23;99932.41;;;11.91;83.31
32081;BME280;18593;51.426;7.030;2023-11-19T10:25:53;99931.94;;;11.94;83.91
32081;BME280;18593;51.426;7.030;2023-11-19T10:28:21;99925.53;;;11.95;83.20
32081;BME280;18593;51.426;7.030;2023-11-19T10:30:48;99926.59;;;11.94;83.76
32081;BME280;18593;51.426;7.030;2023-11-19T10:33:16;99925.53;;;11.95;84.51
32081;BME280;18593;51.426;7.030;2023-11-19T10:35:55;99924.97;;;11.93;83.03
32081;BME280;18593;51.426;7.030;2023-11-19T10:38:24;99929.28;;;11.94;83.00
32081;BME280;18593;51.426;7.030;2023-11-19T10:40:53;99929.03;;;11.95;83.37
32081;BME280;18593;51.426;7.030;2023-11-19T10:43:23;99921.38;;;11.99;83.22
32081;BME280;18593;51.426;7.030;2023-11-19T10:45:51;99919.03;;;12.02;82.57
32081;BME280;18593;51.426;7.030;2023-11-19T10:48:19;99912.66;;;12.03;82.50
32081;BME280;18593;51.426;7.030;2023-11-19T10:50:54;99917.44;;;12.01;83.09
32081;BME280;18593;51.426;7.030;2023-11-19T10:53:26;99906.75;;;12.01;82.37
32081;BME280;18593;51.426;7.030;2023-11-19T10:55:55;99909.97;;;12.03;82.47
32081;BME280;18593;51.426;7.030;2023-11-19T10:58:28;99911.03;;;12.02;82.74
32081;BME280;18593;51.426;7.030;2023-11-19T11:01:02;99902.19;;;12.02;81.73
32081;BME280;18593;51.426;7.030;2023-11-19T11:03:31;99906.50;;;12.03;81.79
32081;BME280;18593;51.426;7.030;2023-11-19T11:06:04;99910.78;;;12.04;81.61
32081;BME280;18593;51.426;7.030;2023-11-19T11:08:36;99901.81;;;12.10;82.07
32081;BME280;18593;51.426;7.030;2023-11-19T11:11:06;99903.22;;;12.13;82.25
32081;BME280;18593;51.426;7.030;2023-11-19T11:13:37;99906.47;;;12.15;81.24
32081;BME280;18593;51.426;7.030;2023-11-19T11:16:10;99896.38;;;12.17;81.04
32081;BME280;18593;51.426;7.030;2023-11-19T11:18:39;99898.09;;;12.23;81.10
32081;BME280;18593;51.426;7.030;2023-11-19T11:21:12;99903.53;;;12.28;81.88
32081;BME280;18593;51.426;7.030;2023-11-19T11:24:07;99899.00;;;12.28;80.61
32081;BME280;18593;51.426;7.030;2023-11-19T11:30:01;99898.28;;;12.33;79.58
32081;BME280;18593;51.426;7.030;2023-11-19T11:32:39;99895.97;;;12.36;79.47
32081;BME280;18593;51.426;7.030;2023-11-19T11:35:24;99887.94;;;12.36;78.04
32081;BME280;18593;51.426;7.030;2023-11-19T11:38:03;99894.91;;;12.37;78.28
32081;BME280;18593;51.426;7.030;2023-11-19T11:40:31;99884.31;;;12.43;78.05
32081;BME280;18593;51.426;7.030;2023-11-19T11:42:59;99880.47;;;12.50;78.21
32081;BME280;18593;51.426;7.030;2023-11-19T11:45:37;99873.00;;;12.52;77.91
32081;BME280;18593;51.426;7.030;2023-11-19T11:48:13;99872.75;;;12.54;77.99
32081;BME280;18593;51.426;7.030;2023-11-19T11:50:52;99870.16;;;12.59;78.58
32081;BME280;18593;51.426;7.030;2023-11-19T11:53:23;99866.47;;;12.60;77.78
32081;BME280;18593;51.426;7.030;2023-11-19T11:55:55;99873.44;;;12.61;78.04
32081;BME280;18593;51.426;7.030;2023-11-19T11:58:32;99874.16;;;12.56;77.77
32081;BME280;18593;51.426;7.030;2023-11-19T12:01:04;99868.00;;;12.56;77.83
32081;BME280;18593;51.426;7.030;2023-11-19T12:03:33;99859.16;;;12.55;77.31
32081;BME280;18593;51.426;7.030;2023-11-19T12:06:02;99860.53;;;12.58;76.51
32081;BME280;18593;51.426;7.030;2023-11-19T12:08:35;99856.47;;;12.55;77.38
32081;BME280;18593;51.426;7.030;2023-11-19T12:11:03;99857.03;;;12.57;76.99
32081;BME280;18593;51.426;7.030;2023-11-19T12:13:53;99861.94;;;12.60;76.72
32081;BME280;18593;51.426;7.030;2023-11-19T12:16:21;99853.66;;;12.62;77.15
32081;BME280;18593;51.426;7.030;2023-11-19T12:18:50;99861.78;;;12.67;76.41
32081;BME280;18593;51.426;7.030;2023-11-19T12:21:29;99856.41;;;12.67;76.18
32081;BME280;18593;51.426;7.030;2023-11-19T12:24:00;99856.41;;;12.67;76.49
32081;BME280;18593;51.426;7.030;2023-11-19T12:26:40;99858.53;;;12.65;76.07
32081;BME280;18593;51.426;7.030;2023-11-19T12:29:08;99842.94;;;12.62;75.95
32081;BME280;18593;51.426;7.030;2023-11-19T12:31:36;99845.63;;;12.62;75.59
32081;BME280;18593;51.426;7.030;2023-11-19T12:34:10;99834.59;;;12.58;75.48
32081;BME280;18593;51.426;7.030;2023-11-19T12:36:44;99835.09;;;12.55;76.42
32081;BME280;18593;51.426;7.030;2023-11-19T12:39:13;99830.53;;;12.56;75.91
32081;BME280;18593;51.426;7.030;2023-11-19T12:41:52;99830.78;;;12.54;76.08
32081;BME280;18593;51.426;7.030;2023-11-19T12:44:21;99828.69;;;12.56;76.20
32081;BME280;18593;51.426;7.030;2023-11-19T12:47:03;99829.94;;;12.54;76.88
32081;BME280;18593;51.426;7.030;2023-11-19T12:49:32;99825.09;;;12.51;76.55
32081;BME280;18593;51.426;7.030;2023-11-19T12:52:00;99818.59;;;12.47;77.53
32081;BME280;18593;51.426;7.030;2023-11-19T12:54:36;99821.66;;;12.38;77.40
32081;BME280;18593;51.426;7.030;2023-11-19T12:57:05;99826.19;;;12.38;77.96
32081;BME280;18593;51.426;7.030;2023-11-19T12:59:34;99837.59;;;12.33;78.28
32081;BME280;18593;51.426;7.030;2023-11-19T13:02:02;99849.00;;;12.29;78.61
32081;BME280;18593;51.426;7.030;2023-11-19T13:04:32;99841.38;;;12.21;79.96
32081;BME280;18593;51.426;7.030;2023-11-19T13:07:00;99851.97;;;12.16;80.48
32081;BME280;18593;51.426;7.030;2023-11-19T13:09:30;99855.91;;;12.13;80.88
32081;BME280;18593;51.426;7.030;2023-11-19T13:11:59;99863.38;;;12.11;80.93